Time;durP1;ratioP1;P1;durP2;ratioP2;P2;SDS_P1;SDS_P2;PMS_P1;PMS_P2;Temp;Humidity;BMP_temperature;BMP_pressure;BME280_temperature;BME280_humidity;BME280_pressure;Samples;Min_cycle;Max_cycle;Signal;HPM_P1;HPM_P2
2021/06/27 00:01:12;;;;;;;3.08;2.22;;;;;;;;;;4928811;29;20059;-83
2021/06/27 00:03:38;;;;;;;4.88;2.40;;;;;;;;;;4927771;28;20563;-84
2021/06/27 00:06:05;;;;;;;3.35;2.20;;;;;;;;;;4929136;29;20130;-84
2021/06/27 00:08:32;;;;;;;2.60;1.90;;;;;;;;;;4929463;28;20189;-84
2021/06/27 00:10:59;;;;;;;3.33;2.25;;;;;;;;;;4930422;28;20055;-85
2021/06/27 00:13:29;;;;;;;3.08;2.22;;;;;;;;;;4931375;28;20588;-84
2021/06/27 00:15:56;;;;;;;3.63;2.03;;;;;;;;;;4930989;28;20043;-82
2021/06/27 00:18:23;;;;;;;2.95;2.25;;;;;;;;;;4924681;29;20543;-85
2021/06/27 00:20:51;;;;;;;2.88;2.10;;;;;;;;;;4929935;28;20091;-82
2021/06/27 00:23:20;;;;;;;2.92;1.77;;;;;;;;;;4929389;28;20444;-84
2021/06/27 00:25:46;;;;;;;3.22;2.38;;;;;;;;;;4928313;29;20075;-84
2021/06/27 00:28:14;;;;;;;3.58;2.13;;;;;;;;;;4929749;29;20122;-83
2021/06/27 00:30:43;;;;;;;3.33;1.90;;;;;;;;;;4928510;28;20495;-84
2021/06/27 00:33:10;;;;;;;4.70;2.20;;;;;;;;;;4929177;28;20647;-84
2021/06/27 00:35:38;;;;;;;3.13;1.92;;;;;;;;;;4930890;28;20052;-81
2021/06/27 00:38:04;;;;;;;2.65;2.00;;;;;;;;;;4929715;28;20059;-82
2021/06/27 00:40:32;;;;;;;2.58;1.75;;;;;;;;;;4930175;29;20099;-82
2021/06/27 00:42:58;;;;;;;4.97;2.20;;;;;;;;;;4930557;29;20074;-81
2021/06/27 00:45:26;;;;;;;4.07;2.50;;;;;;;;;;4928016;28;20452;-85
2021/06/27 00:47:53;;;;;;;3.38;2.25;;;;;;;;;;4929166;28;20087;-84
2021/06/27 00:50:21;;;;;;;3.38;2.50;;;;;;;;;;4935196;28;20039;-85
2021/06/27 00:52:48;;;;;;;4.10;2.22;;;;;;;;;;4931231;29;20059;-87
2021/06/27 00:55:15;;;;;;;3.92;2.58;;;;;;;;;;4922031;29;22193;-83
2021/06/27 00:57:42;;;;;;;4.80;2.35;;;;;;;;;;4923534;28;20512;-83
2021/06/27 01:00:11;;;;;;;4.13;2.40;;;;;;;;;;4923873;28;20259;-82
2021/06/27 01:02:37;;;;;;;3.85;2.60;;;;;;;;;;4928438;28;20035;-84
2021/06/27 01:05:06;;;;;;;4.47;2.47;;;;;;;;;;4927273;28;20516;-83
2021/06/27 01:07:32;;;;;;;3.28;2.63;;;;;;;;;;4929996;29;20059;-83
2021/06/27 01:09:58;;;;;;;4.43;2.67;;;;;;;;;;4926271;28;20071;-83
2021/06/27 01:12:25;;;;;;;4.03;2.42;;;;;;;;;;4927839;28;20160;-84
2021/06/27 01:14:51;;;;;;;4.30;2.60;;;;;;;;;;4927549;29;20060;-82
2021/06/27 01:17:18;;;;;;;4.15;2.17;;;;;;;;;;4929540;28;20067;-84
2021/06/27 01:19:44;;;;;;;4.57;2.65;;;;;;;;;;4943090;28;20063;-83
2021/06/27 01:22:10;;;;;;;5.28;2.50;;;;;;;;;;4931326;28;20496;-83
2021/06/27 01:24:37;;;;;;;2.88;2.20;;;;;;;;;;4935583;29;20048;-84
2021/06/27 01:27:03;;;;;;;3.85;2.38;;;;;;;;;;4933380;28;20047;-84
2021/06/27 01:29:30;;;;;;;4.00;2.40;;;;;;;;;;4928364;29;20067;-83
2021/06/27 01:31:57;;;;;;;3.40;2.30;;;;;;;;;;4925705;28;20074;-85
2021/06/27 01:34:24;;;;;;;3.47;2.15;;;;;;;;;;4926986;28;20157;-84
2021/06/27 01:36:50;;;;;;;5.15;2.53;;;;;;;;;;4924062;28;20078;-83
2021/06/27 01:39:17;;;;;;;3.42;2.33;;;;;;;;;;4931905;28;20067;-83
2021/06/27 01:41:47;;;;;;;3.53;2.33;;;;;;;;;;4930791;29;20047;-84
2021/06/27 01:44:14;;;;;;;2.53;2.07;;;;;;;;;;4931941;28;20541;-84
2021/06/27 01:46:40;;;;;;;3.38;2.40;;;;;;;;;;4928856;29;21877;-86
2021/06/27 01:49:07;;;;;;;4.85;2.20;;;;;;;;;;4927110;29;20214;-84
2021/06/27 01:51:33;;;;;;;2.92;2.05;;;;;;;;;;4931494;29;20031;-84
2021/06/27 01:54:00;;;;;;;2.95;2.03;;;;;;;;;;4926514;28;20584;-84
2021/06/27 01:56:26;;;;;;;2.72;2.10;;;;;;;;;;4926083;28;20076;-84
2021/06/27 01:58:53;;;;;;;2.90;2.10;;;;;;;;;;4927797;28;20114;-84
2021/06/27 02:01:28;;;;;;;3.30;2.08;;;;;;;;;;4932648;28;20064;-85
2021/06/27 02:03:54;;;;;;;2.97;2.15;;;;;;;;;;4927637;28;20071;-84
2021/06/27 02:06:22;;;;;;;3.10;2.28;;;;;;;;;;4930929;28;20574;-85
2021/06/27 02:08:50;;;;;;;4.10;2.10;;;;;;;;;;4932704;28;20079;-84
2021/06/27 02:11:18;;;;;;;3.70;2.20;;;;;;;;;;4933818;28;20036;-83
2021/06/27 02:13:45;;;;;;;3.17;2.10;;;;;;;;;;4942232;28;20125;-83
2021/06/27 02:16:11;;;;;;;3.50;2.20;;;;;;;;;;4929933;28;20063;-84
2021/06/27 02:18:41;;;;;;;2.90;2.03;;;;;;;;;;4921197;29;20618;-84
2021/06/27 02:21:09;;;;;;;2.60;1.70;;;;;;;;;;4927314;28;20475;-84
2021/06/27 02:23:36;;;;;;;3.30;1.98;;;;;;;;;;4928022;28;20115;-83
2021/06/27 02:26:04;;;;;;;2.97;2.10;;;;;;;;;;4928788;29;20503;-83
2021/06/27 02:28:30;;;;;;;3.80;2.35;;;;;;;;;;4946797;29;20503;-83
2021/06/27 02:30:57;;;;;;;3.70;2.28;;;;;;;;;;4925109;28;20055;-85
2021/06/27 02:33:24;;;;;;;3.50;2.13;;;;;;;;;;4931011;28;20074;-83
2021/06/27 02:35:50;;;;;;;3.28;2.40;;;;;;;;;;4929394;28;20440;-83
2021/06/27 02:38:17;;;;;;;3.33;2.60;;;;;;;;;;4932196;28;20060;-83
2021/06/27 02:40:44;;;;;;;3.88;2.50;;;;;;;;;;4946841;28;20082;-84
2021/06/27 02:43:11;;;;;;;3.17;2.35;;;;;;;;;;4928614;29;20059;-83
2021/06/27 02:45:38;;;;;;;3.55;2.47;;;;;;;;;;4929274;28;20158;-83
2021/06/27 02:48:05;;;;;;;3.30;2.60;;;;;;;;;;4929484;29;20063;-85
2021/06/27 02:50:32;;;;;;;3.55;2.63;;;;;;;;;;4922840;28;20066;-85
2021/06/27 02:52:58;;;;;;;4.35;2.78;;;;;;;;;;4930000;28;20082;-85
2021/06/27 02:55:25;;;;;;;4.03;2.95;;;;;;;;;;4932223;29;20060;-85
2021/06/27 02:58:10;;;;;;;5.03;2.78;;;;;;;;;;4932713;29;20155;-84
2021/06/27 03:00:55;;;;;;;3.47;2.33;;;;;;;;;;4933168;29;20139;-83
2021/06/27 03:03:22;;;;;;;3.35;2.40;;;;;;;;;;4932690;29;20415;-83
2021/06/27 03:05:48;;;;;;;4.15;2.97;;;;;;;;;;4928568;28;20055;-84
2021/06/27 03:08:15;;;;;;;3.22;2.50;;;;;;;;;;4927893;28;20126;-83
2021/06/27 03:10:42;;;;;;;3.08;2.53;;;;;;;;;;4928761;28;20505;-84
2021/06/27 03:13:08;;;;;;;3.10;2.50;;;;;;;;;;4930566;28;20032;-83
2021/06/27 03:15:34;;;;;;;4.82;3.00;;;;;;;;;;4926273;29;20107;-82
2021/06/27 03:18:01;;;;;;;3.72;2.67;;;;;;;;;;4930695;29;20052;-83
2021/06/27 03:20:27;;;;;;;3.45;2.55;;;;;;;;;;4924557;28;20056;-84
2021/06/27 03:22:54;;;;;;;3.38;2.47;;;;;;;;;;4944878;29;20106;-83
2021/06/27 03:25:25;;;;;;;3.10;2.30;;;;;;;;;;4931580;28;20060;-83
2021/06/27 03:27:52;;;;;;;3.90;2.58;;;;;;;;;;4927556;29;20126;-83
2021/06/27 03:30:19;;;;;;;3.70;2.70;;;;;;;;;;4932054;28;20048;-83
2021/06/27 03:32:45;;;;;;;4.68;2.95;;;;;;;;;;4930748;28;20044;-84
2021/06/27 03:35:12;;;;;;;4.82;3.33;;;;;;;;;;4931970;28;20054;-82
2021/06/27 03:37:45;;;;;;;3.80;3.17;;;;;;;;;;4930297;28;20066;-82
2021/06/27 03:40:11;;;;;;;4.47;3.00;;;;;;;;;;4930047;28;20038;-83
2021/06/27 03:42:38;;;;;;;4.45;3.10;;;;;;;;;;4931817;28;20138;-83
2021/06/27 03:45:05;;;;;;;4.55;3.22;;;;;;;;;;4931782;28;20063;-84
2021/06/27 03:47:31;;;;;;;4.05;3.00;;;;;;;;;;4931648;29;22273;-82
2021/06/27 03:49:57;;;;;;;6.60;3.20;;;;;;;;;;4955013;28;20036;-84
2021/06/27 03:52:25;;;;;;;3.88;2.60;;;;;;;;;;4933253;28;20082;-84
2021/06/27 03:54:51;;;;;;;3.90;2.58;;;;;;;;;;4932443;29;20055;-84
2021/06/27 03:57:18;;;;;;;4.18;2.88;;;;;;;;;;4944024;28;20055;-83
2021/06/27 03:59:44;;;;;;;4.45;3.13;;;;;;;;;;4928834;28;20063;-84
2021/06/27 04:02:11;;;;;;;4.00;2.90;;;;;;;;;;4927572;28;20071;-83
2021/06/27 04:04:37;;;;;;;3.95;2.85;;;;;;;;;;4931925;29;20062;-84
2021/06/27 04:07:03;;;;;;;3.92;3.15;;;;;;;;;;4932033;29;20086;-84
2021/06/27 04:09:30;;;;;;;4.60;2.90;;;;;;;;;;4927663;28;20118;-83
2021/06/27 04:11:56;;;;;;;4.20;2.88;;;;;;;;;;4932001;28;20047;-83
2021/06/27 04:14:23;;;;;;;3.67;2.88;;;;;;;;;;4933628;28;20555;-83
2021/06/27 04:16:49;;;;;;;3.67;2.72;;;;;;;;;;4921346;29;20079;-83
2021/06/27 04:19:15;;;;;;;3.92;2.83;;;;;;;;;;4928520;28;20070;-82
2021/06/27 04:21:42;;;;;;;3.28;2.38;;;;;;;;;;4926885;28;20583;-84
2021/06/27 04:24:08;;;;;;;3.75;2.90;;;;;;;;;;4929607;28;20103;-84
2021/06/27 04:26:35;;;;;;;3.67;2.70;;;;;;;;;;4932399;28;20063;-86
2021/06/27 04:29:01;;;;;;;5.05;3.30;;;;;;;;;;4927175;28;20055;-84
2021/06/27 04:31:28;;;;;;;3.63;2.60;;;;;;;;;;4929052;28;20645;-84
2021/06/27 04:34:00;;;;;;;3.33;2.63;;;;;;;;;;4931340;28;20087;-85
2021/06/27 04:36:26;;;;;;;3.25;2.45;;;;;;;;;;4928282;28;20551;-84
2021/06/27 04:38:53;;;;;;;3.95;2.70;;;;;;;;;;4930062;29;20111;-84
2021/06/27 04:41:19;;;;;;;2.80;2.40;;;;;;;;;;4929444;28;20115;-85
2021/06/27 04:43:46;;;;;;;3.50;2.53;;;;;;;;;;4927846;28;20078;-85
2021/06/27 04:46:12;;;;;;;4.50;2.60;;;;;;;;;;4926750;28;20074;-82
2021/06/27 04:48:39;;;;;;;3.03;2.45;;;;;;;;;;4931595;28;20063;-83
2021/06/27 04:51:05;;;;;;;3.10;2.42;;;;;;;;;;4931743;29;20055;-85
2021/06/27 04:53:31;;;;;;;3.22;2.60;;;;;;;;;;4932348;28;20298;-85
2021/06/27 04:55:58;;;;;;;3.30;2.60;;;;;;;;;;4941554;29;20071;-85
2021/06/27 04:58:25;;;;;;;3.33;2.15;;;;;;;;;;4926842;28;20126;-85
2021/06/27 05:00:52;;;;;;;3.60;2.30;;;;;;;;;;4928989;28;20072;-84
2021/06/27 05:03:18;;;;;;;3.28;2.20;;;;;;;;;;4922623;28;20063;-84
2021/06/27 05:05:45;;;;;;;3.63;2.53;;;;;;;;;;4923599;29;20432;-84
2021/06/27 05:08:11;;;;;;;3.15;2.33;;;;;;;;;;4928450;28;20058;-83
2021/06/27 05:10:37;;;;;;;3.92;2.53;;;;;;;;;;4944974;28;20084;-84
2021/06/27 05:13:04;;;;;;;3.83;2.35;;;;;;;;;;4929090;29;20070;-83
2021/06/27 05:15:30;;;;;;;2.67;2.20;;;;;;;;;;4933511;29;20439;-84
2021/06/27 05:17:57;;;;;;;3.38;2.10;;;;;;;;;;4948269;29;20052;-85
2021/06/27 05:20:23;;;;;;;3.35;2.50;;;;;;;;;;4933050;28;20059;-82
2021/06/27 05:22:49;;;;;;;3.08;2.03;;;;;;;;;;4933514;29;20059;-85
2021/06/27 05:25:16;;;;;;;3.50;2.47;;;;;;;;;;4930224;28;20060;-83
2021/06/27 05:27:42;;;;;;;3.30;2.45;;;;;;;;;;4931770;28;20071;-84
2021/06/27 05:30:09;;;;;;;3.13;2.38;;;;;;;;;;4932351;28;20063;-85
2021/06/27 05:32:36;;;;;;;4.25;2.55;;;;;;;;;;4930574;28;20040;-86
2021/06/27 05:35:02;;;;;;;3.13;2.10;;;;;;;;;;4932776;28;20051;-86
2021/06/27 05:37:28;;;;;;;2.90;2.00;;;;;;;;;;4933990;28;20070;-84
2021/06/27 05:39:55;;;;;;;4.07;2.83;;;;;;;;;;4934534;28;20070;-83
2021/06/27 05:42:21;;;;;;;3.15;2.20;;;;;;;;;;4932055;28;20063;-84
2021/06/27 05:44:48;;;;;;;3.53;2.30;;;;;;;;;;4932827;28;20067;-77
2021/06/27 05:47:15;;;;;;;4.78;2.60;;;;;;;;;;4932650;28;20456;-76
2021/06/27 05:49:42;;;;;;;3.38;2.50;;;;;;;;;;4945788;28;20066;-75
2021/06/27 05:52:08;;;;;;;3.45;2.42;;;;;;;;;;4932693;28;20063;-76
2021/06/27 05:54:34;;;;;;;4.00;2.55;;;;;;;;;;4930022;29;20063;-75
2021/06/27 05:57:01;;;;;;;3.60;2.28;;;;;;;;;;4932175;29;20059;-76
2021/06/27 05:59:27;;;;;;;4.03;2.60;;;;;;;;;;4929521;28;20079;-76
2021/06/27 06:01:54;;;;;;;3.13;2.40;;;;;;;;;;4946687;28;20062;-76
2021/06/27 06:04:20;;;;;;;3.08;2.22;;;;;;;;;;4930819;28;20059;-75
2021/06/27 06:06:47;;;;;;;3.47;2.20;;;;;;;;;;4932668;29;20055;-75
2021/06/27 06:09:13;;;;;;;3.92;2.60;;;;;;;;;;4927869;29;20078;-77
2021/06/27 06:11:39;;;;;;;4.05;2.20;;;;;;;;;;4929529;28;20543;-76
2021/06/27 06:14:06;;;;;;;4.32;2.38;;;;;;;;;;4931119;28;20047;-75
2021/06/27 06:16:32;;;;;;;4.13;2.67;;;;;;;;;;4928820;28;20585;-77
2021/06/27 06:18:59;;;;;;;4.30;2.60;;;;;;;;;;4930886;28;20067;-76
2021/06/27 06:21:25;;;;;;;4.90;2.47;;;;;;;;;;4927009;28;20094;-76
2021/06/27 06:23:52;;;;;;;3.85;2.05;;;;;;;;;;4929495;28;20071;-76
2021/06/27 06:26:18;;;;;;;3.50;2.22;;;;;;;;;;4931351;28;20512;-74
2021/06/27 06:28:44;;;;;;;3.72;2.20;;;;;;;;;;4930073;28;20511;-76
2021/06/27 06:31:11;;;;;;;4.18;2.15;;;;;;;;;;4929704;28;20055;-77
2021/06/27 06:33:37;;;;;;;2.95;2.13;;;;;;;;;;4930315;28;20491;-74
2021/06/27 06:36:04;;;;;;;3.08;2.13;;;;;;;;;;4930680;28;20429;-75
2021/06/27 06:38:31;;;;;;;2.75;2.00;;;;;;;;;;4931190;28;20511;-73
2021/06/27 06:40:57;;;;;;;3.50;2.30;;;;;;;;;;4930331;28;20075;-74
2021/06/27 06:43:24;;;;;;;3.13;2.00;;;;;;;;;;4929353;28;20068;-75
2021/06/27 06:45:51;;;;;;;2.95;1.98;;;;;;;;;;4928655;28;20122;-75
2021/06/27 06:48:17;;;;;;;4.03;2.28;;;;;;;;;;4929638;29;20070;-74
2021/06/27 06:50:43;;;;;;;2.80;1.90;;;;;;;;;;4930867;28;20555;-74
2021/06/27 06:53:10;;;;;;;2.65;1.70;;;;;;;;;;4929992;29;20618;-75
2021/06/27 06:55:36;;;;;;;2.67;1.92;;;;;;;;;;4926991;29;20496;-74
2021/06/27 06:58:03;;;;;;;3.22;2.08;;;;;;;;;;4927193;29;20059;-75
2021/06/27 07:00:29;;;;;;;3.17;2.03;;;;;;;;;;4930504;28;20052;-73
2021/06/27 07:02:56;;;;;;;4.80;2.10;;;;;;;;;;4931542;29;20538;-74
2021/06/27 07:05:22;;;;;;;2.85;1.90;;;;;;;;;;4929026;28;20094;-74
2021/06/27 07:07:49;;;;;;;2.88;1.90;;;;;;;;;;4928476;28;20471;-76
2021/06/27 07:10:15;;;;;;;3.45;2.30;;;;;;;;;;4929287;28;20095;-74
2021/06/27 07:12:42;;;;;;;3.92;2.10;;;;;;;;;;4931029;28;20070;-74
2021/06/27 07:15:10;;;;;;;3.28;1.85;;;;;;;;;;4930388;28;20063;-76
2021/06/27 07:17:36;;;;;;;4.07;1.92;;;;;;;;;;4931286;28;20142;-75
2021/06/27 07:20:03;;;;;;;3.33;2.03;;;;;;;;;;4929734;28;20480;-74
2021/06/27 07:22:30;;;;;;;2.88;1.77;;;;;;;;;;4929829;29;20077;-74
2021/06/27 07:24:56;;;;;;;3.33;1.95;;;;;;;;;;4931430;28;20040;-74
2021/06/27 07:27:23;;;;;;;2.80;1.92;;;;;;;;;;4927610;28;20056;-73
2021/06/27 07:29:50;;;;;;;3.80;1.83;;;;;;;;;;4928262;28;20059;-76
2021/06/27 07:32:16;;;;;;;4.15;1.88;;;;;;;;;;4928061;28;20094;-75
2021/06/27 07:34:43;;;;;;;3.78;1.83;;;;;;;;;;4928928;29;20059;-75
2021/06/27 07:37:09;;;;;;;4.85;1.80;;;;;;;;;;4930019;29;20515;-75
2021/06/27 07:39:35;;;;;;;3.22;1.80;;;;;;;;;;4929735;28;20060;-75
2021/06/27 07:42:02;;;;;;;3.50;2.10;;;;;;;;;;4929691;29;20067;-75
2021/06/27 07:44:28;;;;;;;3.60;2.30;;;;;;;;;;4927799;28;20058;-75
2021/06/27 07:46:55;;;;;;;2.72;1.90;;;;;;;;;;4926021;29;20063;-75
2021/06/27 07:49:21;;;;;;;2.63;1.80;;;;;;;;;;4931047;28;20487;-75
2021/06/27 07:51:47;;;;;;;3.00;2.00;;;;;;;;;;4926994;29;20067;-75
2021/06/27 07:54:14;;;;;;;3.78;1.95;;;;;;;;;;4928341;29;20063;-76
2021/06/27 07:56:40;;;;;;;2.97;1.80;;;;;;;;;;4923063;28;20492;-74
2021/06/27 07:59:08;;;;;;;2.60;1.70;;;;;;;;;;4935621;29;20090;-75
2021/06/27 08:01:35;;;;;;;2.72;1.90;;;;;;;;;;4925701;29;20363;-76
2021/06/27 08:04:01;;;;;;;2.88;1.60;;;;;;;;;;4925995;29;20063;-75
2021/06/27 08:06:28;;;;;;;4.90;1.90;;;;;;;;;;4927183;28;20106;-75
2021/06/27 08:08:54;;;;;;;2.35;1.58;;;;;;;;;;4929453;28;20044;-76
2021/06/27 08:11:20;;;;;;;2.45;1.73;;;;;;;;;;4930387;28;20067;-76
2021/06/27 08:13:47;;;;;;;3.15;1.83;;;;;;;;;;4927182;28;20733;-76
2021/06/27 08:16:13;;;;;;;2.38;1.60;;;;;;;;;;4929612;28;20067;-76
2021/06/27 08:18:40;;;;;;;2.60;1.70;;;;;;;;;;4929148;28;20059;-75
2021/06/27 08:21:06;;;;;;;2.42;1.77;;;;;;;;;;4929058;29;20512;-75
2021/06/27 08:23:33;;;;;;;4.70;1.90;;;;;;;;;;4929620;28;20749;-75
2021/06/27 08:25:59;;;;;;;2.72;1.45;;;;;;;;;;4939257;28;20183;-76
2021/06/27 08:28:25;;;;;;;2.45;1.58;;;;;;;;;;4928023;28;20099;-76
2021/06/27 08:30:52;;;;;;;2.97;1.77;;;;;;;;;;4928077;28;20071;-75
2021/06/27 08:33:18;;;;;;;3.15;1.60;;;;;;;;;;4927899;28;20120;-75
2021/06/27 08:35:45;;;;;;;2.10;1.67;;;;;;;;;;4930146;28;20059;-76
2021/06/27 08:38:11;;;;;;;2.58;1.80;;;;;;;;;;4924788;28;20208;-77
2021/06/27 08:40:38;;;;;;;2.20;1.48;;;;;;;;;;4929461;29;20066;-75
2021/06/27 08:43:12;;;;;;;2.60;1.58;;;;;;;;;;4929494;29;20067;-74
2021/06/27 08:45:42;;;;;;;2.17;1.60;;;;;;;;;;4924731;28;21524;-75
2021/06/27 08:48:09;;;;;;;2.17;1.55;;;;;;;;;;4929220;28;20090;-76
2021/06/27 08:50:35;;;;;;;2.13;1.60;;;;;;;;;;4928371;28;20139;-75
2021/06/27 08:53:02;;;;;;;2.90;1.75;;;;;;;;;;4929588;28;20548;-75
2021/06/27 08:55:28;;;;;;;2.08;1.40;;;;;;;;;;4928007;28;20063;-74
2021/06/27 08:57:55;;;;;;;2.20;1.30;;;;;;;;;;4929598;29;20118;-75
2021/06/27 09:00:21;;;;;;;2.03;1.02;;;;;;;;;;4929320;28;20063;-75
2021/06/27 09:02:48;;;;;;;2.17;1.25;;;;;;;;;;4929665;29;20071;-76
2021/06/27 09:05:14;;;;;;;1.83;1.02;;;;;;;;;;4928117;28;20067;-76
2021/06/27 09:07:41;;;;;;;2.10;1.50;;;;;;;;;;4929519;28;20126;-75
2021/06/27 09:10:09;;;;;;;1.70;1.20;;;;;;;;;;4944395;28;20144;-75
2021/06/27 09:12:45;;;;;;;2.95;1.25;;;;;;;;;;4929475;29;21398;-74
2021/06/27 09:15:13;;;;;;;2.30;1.02;;;;;;;;;;4927883;28;20064;-75
2021/06/27 09:17:43;;;;;;;1.83;1.15;;;;;;;;;;4929944;28;20059;-75
2021/06/27 09:20:13;;;;;;;1.77;1.15;;;;;;;;;;4928289;28;20527;-74
2021/06/27 09:22:43;;;;;;;2.20;1.20;;;;;;;;;;4926575;29;20087;-74
2021/06/27 09:25:16;;;;;;;2.33;1.25;;;;;;;;;;4926991;28;20062;-74
2021/06/27 09:27:43;;;;;;;1.70;1.20;;;;;;;;;;4924055;28;20075;-75
2021/06/27 09:30:12;;;;;;;2.20;0.95;;;;;;;;;;4927854;28;20063;-74
2021/06/27 09:32:49;;;;;;;3.08;1.17;;;;;;;;;;4924631;29;20052;-75
2021/06/27 09:35:16;;;;;;;2.20;1.08;;;;;;;;;;4920669;28;20063;-76
2021/06/27 09:37:42;;;;;;;2.78;1.10;;;;;;;;;;4928136;28;20064;-75
2021/06/27 09:40:09;;;;;;;2.28;1.27;;;;;;;;;;4918219;28;20063;-75
2021/06/27 09:42:35;;;;;;;2.00;1.20;;;;;;;;;;4930239;28;20063;-75
2021/06/27 09:45:06;;;;;;;1.58;1.15;;;;;;;;;;4927484;28;20440;-76
2021/06/27 09:47:33;;;;;;;2.63;1.10;;;;;;;;;;4927539;28;20319;-74
2021/06/27 09:50:00;;;;;;;1.98;1.20;;;;;;;;;;4930106;28;20060;-75
2021/06/27 09:52:36;;;;;;;4.05;1.20;;;;;;;;;;4929406;28;20080;-76
2021/06/27 09:55:07;;;;;;;1.88;1.00;;;;;;;;;;4920398;28;20071;-75
2021/06/27 09:57:33;;;;;;;2.53;1.17;;;;;;;;;;4928888;28;20285;-76
2021/06/27 09:59:59;;;;;;;2.25;1.20;;;;;;;;;;4929287;28;20503;-74
2021/06/27 10:02:26;;;;;;;5.03;1.00;;;;;;;;;;4926595;28;20071;-73
2021/06/27 10:04:52;;;;;;;1.25;0.80;;;;;;;;;;4931109;29;20523;-75
2021/06/27 10:07:19;;;;;;;1.80;1.02;;;;;;;;;;4928873;28;20134;-75
2021/06/27 10:09:45;;;;;;;2.58;1.15;;;;;;;;;;4928026;28;20041;-74
2021/06/27 10:12:13;;;;;;;2.17;1.20;;;;;;;;;;4931617;28;20035;-75
2021/06/27 10:14:49;;;;;;;1.83;1.05;;;;;;;;;;4930643;28;20064;-74
2021/06/27 10:17:16;;;;;;;2.17;1.10;;;;;;;;;;4923217;28;20137;-74
2021/06/27 10:19:43;;;;;;;1.83;1.10;;;;;;;;;;4923357;29;20040;-74
2021/06/27 10:22:10;;;;;;;1.75;1.20;;;;;;;;;;4931766;28;20028;-74
2021/06/27 10:24:37;;;;;;;2.08;1.10;;;;;;;;;;4931348;28;20052;-75
2021/06/27 10:27:05;;;;;;;1.70;1.13;;;;;;;;;;4924332;29;20076;-75
2021/06/27 10:29:32;;;;;;;2.05;1.17;;;;;;;;;;4926011;29;20154;-74
2021/06/27 10:31:59;;;;;;;1.88;1.25;;;;;;;;;;4929338;29;20063;-74
2021/06/27 10:34:26;;;;;;;2.05;1.30;;;;;;;;;;4927630;28;20500;-74
2021/06/27 10:36:56;;;;;;;2.40;1.15;;;;;;;;;;4931329;29;20142;-74
2021/06/27 10:39:24;;;;;;;1.90;1.30;;;;;;;;;;4921271;28;20511;-75
2021/06/27 10:41:50;;;;;;;2.55;1.20;;;;;;;;;;4920870;29;20055;-74
2021/06/27 10:44:20;;;;;;;1.70;1.10;;;;;;;;;;4931929;28;20036;-75
2021/06/27 10:46:50;;;;;;;1.75;1.17;;;;;;;;;;4931224;28;20115;-74
2021/06/27 10:49:32;;;;;;;1.80;1.15;;;;;;;;;;4929974;28;20063;-75
2021/06/27 10:52:02;;;;;;;2.03;1.48;;;;;;;;;;4927045;29;20134;-75
2021/06/27 10:54:42;;;;;;;1.60;1.10;;;;;;;;;;4932285;28;20056;-74
2021/06/27 10:57:12;;;;;;;1.70;1.10;;;;;;;;;;4923506;29;21029;-78
2021/06/27 10:59:39;;;;;;;2.88;1.20;;;;;;;;;;4924613;29;20603;-75
2021/06/27 11:02:19;;;;;;;2.03;1.20;;;;;;;;;;4929412;28;20048;-74
2021/06/27 11:04:46;;;;;;;1.73;1.17;;;;;;;;;;4929692;28;20035;-77
2021/06/27 11:07:31;;;;;;;2.20;1.35;;;;;;;;;;4930872;28;20495;-75
2021/06/27 11:10:16;;;;;;;2.50;1.45;;;;;;;;;;4931613;29;20118;-74
2021/06/27 11:13:01;;;;;;;3.03;1.30;;;;;;;;;;4919733;29;22201;-74
2021/06/27 11:15:50;;;;;;;2.20;1.35;;;;;;;;;;4927527;28;20091;-75
2021/06/27 11:18:30;;;;;;;1.77;1.13;;;;;;;;;;4931005;29;20087;-74
2021/06/27 11:20:56;;;;;;;2.63;1.33;;;;;;;;;;4930422;28;20063;-74
2021/06/27 11:23:41;;;;;;;1.95;1.25;;;;;;;;;;4929024;29;20087;-75
2021/06/27 11:26:08;;;;;;;2.10;1.30;;;;;;;;;;4925105;29;20075;-74
2021/06/27 11:28:34;;;;;;;3.38;1.60;;;;;;;;;;4929985;28;22294;-73
2021/06/27 11:31:19;;;;;;;2.50;1.63;;;;;;;;;;4926033;28;20431;-74
2021/06/27 11:33:46;;;;;;;3.08;2.00;;;;;;;;;;4936124;28;20051;-73
2021/06/27 11:36:26;;;;;;;3.42;1.95;;;;;;;;;;4942098;29;20048;-75
2021/06/27 11:38:52;;;;;;;2.95;1.70;;;;;;;;;;4929311;29;20059;-73
2021/06/27 11:41:38;;;;;;;3.25;2.28;;;;;;;;;;4928906;28;20122;-73
2021/06/27 11:44:16;;;;;;;3.13;2.20;;;;;;;;;;4929941;29;20371;-73
2021/06/27 11:46:47;;;;;;;2.92;1.80;;;;;;;;;;4929523;28;21363;-74
2021/06/27 11:49:19;;;;;;;3.10;1.90;;;;;;;;;;4929653;28;20071;-73
2021/06/27 11:51:48;;;;;;;2.40;1.67;;;;;;;;;;4931207;28;20570;-74
2021/06/27 11:54:16;;;;;;;2.88;1.90;;;;;;;;;;4928761;28;20499;-73
2021/06/27 11:56:58;;;;;;;3.03;1.92;;;;;;;;;;4929701;29;20464;-73
2021/06/27 11:59:26;;;;;;;3.70;1.95;;;;;;;;;;4929638;28;20126;-73
2021/06/27 12:02:05;;;;;;;2.75;1.73;;;;;;;;;;4927271;29;20075;-73
2021/06/27 12:04:57;;;;;;;3.08;1.88;;;;;;;;;;4926885;28;20088;-74
2021/06/27 12:07:25;;;;;;;2.83;1.63;;;;;;;;;;4927148;29;20079;-73
2021/06/27 12:09:51;;;;;;;3.28;1.70;;;;;;;;;;4929020;28;20063;-72
2021/06/27 12:12:33;;;;;;;2.38;1.58;;;;;;;;;;4930232;28;20111;-73
2021/06/27 12:14:59;;;;;;;2.65;1.60;;;;;;;;;;4928596;28;20063;-73
2021/06/27 12:17:26;;;;;;;2.58;1.58;;;;;;;;;;4927965;29;20595;-74
2021/06/27 12:19:53;;;;;;;2.70;1.60;;;;;;;;;;4928828;28;20075;-74
2021/06/27 12:22:20;;;;;;;2.50;1.60;;;;;;;;;;4927736;28;20071;-73
2021/06/27 12:24:47;;;;;;;2.70;1.80;;;;;;;;;;4930151;29;20471;-73
2021/06/27 12:27:13;;;;;;;3.35;1.50;;;;;;;;;;4928756;28;20083;-74
2021/06/27 12:29:52;;;;;;;4.88;1.60;;;;;;;;;;4930292;28;20563;-74
2021/06/27 12:32:19;;;;;;;2.55;1.50;;;;;;;;;;4924590;29;20095;-74
2021/06/27 12:34:46;;;;;;;2.25;1.58;;;;;;;;;;4928068;29;20059;-75
2021/06/27 12:37:14;;;;;;;5.28;1.70;;;;;;;;;;4928134;28;20075;-75
2021/06/27 12:39:40;;;;;;;2.58;1.58;;;;;;;;;;4930342;29;20507;-75
2021/06/27 12:42:11;;;;;;;3.40;1.65;;;;;;;;;;4911080;29;20064;-73
2021/06/27 12:44:38;;;;;;;4.38;1.70;;;;;;;;;;4931100;28;21145;-73
2021/06/27 12:47:04;;;;;;;2.03;1.48;;;;;;;;;;4929726;28;20091;-73
2021/06/27 12:49:33;;;;;;;2.67;1.40;;;;;;;;;;4924539;28;20052;-74
2021/06/27 12:52:06;;;;;;;2.97;1.60;;;;;;;;;;4943995;28;20114;-73
2021/06/27 12:54:34;;;;;;;2.75;1.33;;;;;;;;;;4927755;29;20063;-74
2021/06/27 12:57:03;;;;;;;2.67;1.58;;;;;;;;;;4927876;29;20067;-73
2021/06/27 12:59:36;;;;;;;2.33;1.48;;;;;;;;;;4927555;28;20134;-74
2021/06/27 13:02:07;;;;;;;2.92;1.55;;;;;;;;;;4929102;28;20480;-74
2021/06/27 13:04:36;;;;;;;2.60;1.50;;;;;;;;;;4928016;28;20055;-74
2021/06/27 13:07:13;;;;;;;3.55;1.35;;;;;;;;;;4929068;28;20067;-74
2021/06/27 13:09:41;;;;;;;2.22;1.40;;;;;;;;;;4927180;29;20062;-73
2021/06/27 13:12:12;;;;;;;3.25;1.48;;;;;;;;;;4927136;28;20123;-74
2021/06/27 13:14:40;;;;;;;3.63;1.42;;;;;;;;;;4926694;29;20067;-74
2021/06/27 13:17:18;;;;;;;2.72;1.65;;;;;;;;;;4928311;29;20063;-75
2021/06/27 13:20:03;;;;;;;2.40;1.55;;;;;;;;;;4928836;28;20047;-74
2021/06/27 13:22:30;;;;;;;2.30;1.40;;;;;;;;;;4928456;28;20099;-73
2021/06/27 13:25:01;;;;;;;2.45;1.60;;;;;;;;;;4929035;28;20059;-75
2021/06/27 13:27:27;;;;;;;4.35;1.70;;;;;;;;;;4926052;28;20107;-73
2021/06/27 13:30:03;;;;;;;2.53;1.52;;;;;;;;;;4927246;28;20111;-73
2021/06/27 13:32:29;;;;;;;2.97;1.92;;;;;;;;;;4926576;28;20088;-74
2021/06/27 13:34:56;;;;;;;2.30;1.40;;;;;;;;;;4929841;28;20918;-75
2021/06/27 13:37:22;;;;;;;2.63;1.52;;;;;;;;;;4928871;28;20059;-74
2021/06/27 13:39:49;;;;;;;2.97;1.63;;;;;;;;;;4944865;28;20495;-74
2021/06/27 13:42:16;;;;;;;3.97;1.73;;;;;;;;;;4931069;28;20075;-75
2021/06/27 13:45:06;;;;;;;3.05;1.88;;;;;;;;;;4926901;28;20118;-75
2021/06/27 13:47:32;;;;;;;6.28;2.17;;;;;;;;;;4938520;28;20074;-74
2021/06/27 13:49:59;;;;;;;3.03;1.65;;;;;;;;;;4932148;28;20489;-74
2021/06/27 13:52:25;;;;;;;3.15;1.80;;;;;;;;;;4927277;28;20067;-74
2021/06/27 13:54:54;;;;;;;5.00;1.95;;;;;;;;;;4932411;28;20408;-74
2021/06/27 13:57:20;;;;;;;3.65;2.05;;;;;;;;;;4930240;28;20060;-74
2021/06/27 13:59:47;;;;;;;2.50;1.60;;;;;;;;;;4931108;28;20063;-74
2021/06/27 14:02:13;;;;;;;3.20;2.00;;;;;;;;;;4931112;28;20566;-74
2021/06/27 14:04:39;;;;;;;4.70;2.30;;;;;;;;;;4930798;28;20063;-75
2021/06/27 14:07:06;;;;;;;4.25;1.80;;;;;;;;;;4931753;29;20654;-75
2021/06/27 14:09:32;;;;;;;2.90;1.60;;;;;;;;;;4931640;28;20075;-74
2021/06/27 14:11:59;;;;;;;3.67;1.83;;;;;;;;;;4930489;29;20781;-74
2021/06/27 14:14:25;;;;;;;2.60;2.00;;;;;;;;;;4928988;29;20059;-75
2021/06/27 14:16:51;;;;;;;3.55;1.70;;;;;;;;;;4933287;29;20075;-75
2021/06/27 14:19:18;;;;;;;4.25;2.15;;;;;;;;;;4927628;29;20039;-73
2021/06/27 14:21:49;;;;;;;3.33;1.98;;;;;;;;;;4938701;29;20071;-73
2021/06/27 14:24:16;;;;;;;3.05;2.40;;;;;;;;;;4931288;28;20567;-74
2021/06/27 14:26:42;;;;;;;3.38;1.80;;;;;;;;;;4945180;28;20055;-73
2021/06/27 14:29:08;;;;;;;2.85;1.95;;;;;;;;;;4931127;28;20067;-73
2021/06/27 14:31:35;;;;;;;4.47;2.03;;;;;;;;;;4928475;29;20055;-73
2021/06/27 14:34:03;;;;;;;5.03;2.40;;;;;;;;;;4932373;29;20055;-73
2021/06/27 14:36:29;;;;;;;3.95;2.20;;;;;;;;;;4929327;29;20937;-74
2021/06/27 14:38:56;;;;;;;4.00;1.90;;;;;;;;;;4930430;29;20550;-73
2021/06/27 14:41:29;;;;;;;2.92;1.77;;;;;;;;;;4930831;28;20063;-76
2021/06/27 14:43:56;;;;;;;3.08;2.10;;;;;;;;;;4925755;28;20047;-74
2021/06/27 14:46:38;;;;;;;3.42;2.20;;;;;;;;;;4935933;28;20506;-74
2021/06/27 14:49:04;;;;;;;3.13;2.00;;;;;;;;;;4930580;28;20075;-76